The Vly, New York
Current Conditions -  °F | °C
As of 9:53 AM on Friday 24 Oct 2014 (Local Time) from KPOU Reporting Station
Overcast Overcast  
Wind Chill: 11°   Ceiling: 3500
Heat Index: 11°   Visibility: 10mi
Dew Point:   Wind: 3mph
Humidity: 80%   Direction: 10°N
Pressure: 29.82"   Gusts: NA
Location:  41.8715°N, 74.1782°W
Report Text: KPOU 241353Z 01003KT 10SM OVC035 11/07 A2982 RMK AO2 SLP096 T01060072
Loading
Personal Weather Stations






























Interactive Weather Map
Tropical Storm Tracking
New forecast layout! Learn more

10-Day Weather Forecast

Advertisements
Track Severe Weather on mobile